sensor_id;sensor_type;location;lat;lon;timestamp;temperature;humidity
14755;DHT22;7469;50.906;6.952;2024-03-02T00:01:52;8.30;99.90
14755;DHT22;7469;50.906;6.952;2024-03-02T00:04:20;8.40;99.90
14755;DHT22;7469;50.906;6.952;2024-03-02T00:06:51;8.40;99.90
14755;DHT22;7469;50.906;6.952;2024-03-02T00:09:21;8.40;99.90
14755;DHT22;7469;50.906;6.952;2024-03-02T00:11:49;8.40;99.90
14755;DHT22;7469;50.906;6.952;2024-03-02T00:14:17;8.40;99.90
14755;DHT22;7469;50.906;6.952;2024-03-02T00:16:45;8.40;99.90
14755;DHT22;7469;50.906;6.952;2024-03-02T00:19:13;8.40;99.90
14755;DHT22;7469;50.906;6.952;2024-03-02T00:21:41;8.50;99.90
14755;DHT22;7469;50.906;6.952;2024-03-02T00:24:24;8.50;99.90
14755;DHT22;7469;50.906;6.952;2024-03-02T00:26:53;8.50;99.90
14755;DHT22;7469;50.906;6.952;2024-03-02T00:29:21;8.50;99.90
14755;DHT22;7469;50.906;6.952;2024-03-02T00:31:49;8.50;99.90
14755;DHT22;7469;50.906;6.952;2024-03-02T00:34:17;8.50;99.90
14755;DHT22;7469;50.906;6.952;2024-03-02T00:36:45;8.50;99.90
14755;DHT22;7469;50.906;6.952;2024-03-02T00:39:15;8.60;99.90
14755;DHT22;7469;50.906;6.952;2024-03-02T00:41:45;8.60;99.90
14755;DHT22;7469;50.906;6.952;2024-03-02T00:44:13;8.50;99.90
14755;DHT22;7469;50.906;6.952;2024-03-02T00:46:43;8.50;99.90
14755;DHT22;7469;50.906;6.952;2024-03-02T00:49:22;8.50;99.90
14755;DHT22;7469;50.906;6.952;2024-03-02T00:51:51;8.50;99.90
14755;DHT22;7469;50.906;6.952;2024-03-02T00:54:20;8.50;99.90
14755;DHT22;7469;50.906;6.952;2024-03-02T00:56:52;8.50;99.90
14755;DHT22;7469;50.906;6.952;2024-03-02T00:59:22;8.50;99.90
14755;DHT22;7469;50.906;6.952;2024-03-02T01:01:50;8.50;99.90
14755;DHT22;7469;50.906;6.952;2024-03-02T01:04:18;8.50;99.90
14755;DHT22;7469;50.906;6.952;2024-03-02T01:06:46;8.50;99.90
14755;DHT22;7469;50.906;6.952;2024-03-02T01:09:14;8.50;99.90
14755;DHT22;7469;50.906;6.952;2024-03-02T01:11:44;8.50;99.90
14755;DHT22;7469;50.906;6.952;2024-03-02T01:14:13;8.50;99.90
14755;DHT22;7469;50.906;6.952;2024-03-02T01:16:41;8.50;99.90
14755;DHT22;7469;50.906;6.952;2024-03-02T01:19:09;8.50;99.90
14755;DHT22;7469;50.906;6.952;2024-03-02T01:21:37;8.50;99.90
14755;DHT22;7469;50.906;6.952;2024-03-02T01:24:05;8.50;99.90
14755;DHT22;7469;50.906;6.952;2024-03-02T01:26:33;8.50;99.90
14755;DHT22;7469;50.906;6.952;2024-03-02T01:29:01;8.40;99.90
14755;DHT22;7469;50.906;6.952;2024-03-02T01:31:31;8.40;99.90
14755;DHT22;7469;50.906;6.952;2024-03-02T01:33:59;8.40;99.90
14755;DHT22;7469;50.906;6.952;2024-03-02T01:36:27;8.40;99.90
14755;DHT22;7469;50.906;6.952;2024-03-02T01:38:55;8.40;99.90
14755;DHT22;7469;50.906;6.952;2024-03-02T01:41:23;8.30;99.90
14755;DHT22;7469;50.906;6.952;2024-03-02T01:43:51;8.40;99.90
14755;DHT22;7469;50.906;6.952;2024-03-02T01:46:19;8.30;99.90
14755;DHT22;7469;50.906;6.952;2024-03-02T01:48:48;8.30;99.90
14755;DHT22;7469;50.906;6.952;2024-03-02T01:51:16;8.40;99.90
14755;DHT22;7469;50.906;6.952;2024-03-02T01:53:44;8.40;99.90
14755;DHT22;7469;50.906;6.952;2024-03-02T01:56:12;8.40;99.90
14755;DHT22;7469;50.906;6.952;2024-03-02T01:58:40;8.40;99.90
14755;DHT22;7469;50.906;6.952;2024-03-02T02:01:08;8.40;99.90
14755;DHT22;7469;50.906;6.952;2024-03-02T02:03:37;8.50;99.90
14755;DHT22;7469;50.906;6.952;2024-03-02T02:06:08;8.50;99.90
14755;DHT22;7469;50.906;6.952;2024-03-02T02:08:36;8.50;99.90
14755;DHT22;7469;50.906;6.952;2024-03-02T02:11:04;8.50;99.90
14755;DHT22;7469;50.906;6.952;2024-03-02T02:13:32;8.50;99.90
14755;DHT22;7469;50.906;6.952;2024-03-02T02:16:05;8.50;99.90
14755;DHT22;7469;50.906;6.952;2024-03-02T02:18:33;8.50;99.90
14755;DHT22;7469;50.906;6.952;2024-03-02T02:21:02;8.50;99.90
14755;DHT22;7469;50.906;6.952;2024-03-02T02:23:31;8.50;99.90
14755;DHT22;7469;50.906;6.952;2024-03-02T02:25:59;8.60;99.90
14755;DHT22;7469;50.906;6.952;2024-03-02T02:28:29;8.50;99.90
14755;DHT22;7469;50.906;6.952;2024-03-02T02:30:57;8.50;99.90
14755;DHT22;7469;50.906;6.952;2024-03-02T02:33:27;8.50;99.90
14755;DHT22;7469;50.906;6.952;2024-03-02T02:35:55;8.50;99.90
14755;DHT22;7469;50.906;6.952;2024-03-02T02:38:23;8.50;99.90
14755;DHT22;7469;50.906;6.952;2024-03-02T02:40:52;8.50;99.90
14755;DHT22;7469;50.906;6.952;2024-03-02T02:43:20;8.50;99.90
14755;DHT22;7469;50.906;6.952;2024-03-02T02:45:48;8.50;99.90
14755;DHT22;7469;50.906;6.952;2024-03-02T02:48:16;8.40;99.90
14755;DHT22;7469;50.906;6.952;2024-03-02T02:50:44;8.40;99.90
14755;DHT22;7469;50.906;6.952;2024-03-02T02:53:12;8.40;99.90
14755;DHT22;7469;50.906;6.952;2024-03-02T02:55:40;8.40;99.90
14755;DHT22;7469;50.906;6.952;2024-03-02T03:00:45;8.30;99.90
14755;DHT22;7469;50.906;6.952;2024-03-02T03:03:13;8.30;99.90
14755;DHT22;7469;50.906;6.952;2024-03-02T03:05:41;8.30;99.90
14755;DHT22;7469;50.906;6.952;2024-03-02T03:08:09;8.30;99.90
14755;DHT22;7469;50.906;6.952;2024-03-02T03:10:37;8.30;99.90
14755;DHT22;7469;50.906;6.952;2024-03-02T03:13:05;8.30;99.90
14755;DHT22;7469;50.906;6.952;2024-03-02T03:15:35;8.30;99.90
14755;DHT22;7469;50.906;6.952;2024-03-02T03:18:04;8.30;99.90
14755;DHT22;7469;50.906;6.952;2024-03-02T03:20:33;8.30;99.90
14755;DHT22;7469;50.906;6.952;2024-03-02T03:23:01;8.40;99.90
14755;DHT22;7469;50.906;6.952;2024-03-02T03:25:30;8.40;99.90
14755;DHT22;7469;50.906;6.952;2024-03-02T03:27:58;8.40;99.90
14755;DHT22;7469;50.906;6.952;2024-03-02T03:30:26;8.40;99.90
14755;DHT22;7469;50.906;6.952;2024-03-02T03:32:54;8.40;99.90
14755;DHT22;7469;50.906;6.952;2024-03-02T03:35:24;8.40;99.90
14755;DHT22;7469;50.906;6.952;2024-03-02T03:37:52;8.40;99.90
14755;DHT22;7469;50.906;6.952;2024-03-02T03:40:19;8.40;99.90
14755;DHT22;7469;50.906;6.952;2024-03-02T03:42:47;8.40;99.90
14755;DHT22;7469;50.906;6.952;2024-03-02T03:45:15;8.30;99.90
14755;DHT22;7469;50.906;6.952;2024-03-02T03:47:43;8.40;99.90
14755;DHT22;7469;50.906;6.952;2024-03-02T03:50:11;8.40;99.90
14755;DHT22;7469;50.906;6.952;2024-03-02T03:52:41;8.40;99.90
14755;DHT22;7469;50.906;6.952;2024-03-02T03:55:09;8.40;99.90
14755;DHT22;7469;50.906;6.952;2024-03-02T03:57:37;8.40;99.90
14755;DHT22;7469;50.906;6.952;2024-03-02T04:00:06;8.40;99.90
14755;DHT22;7469;50.906;6.952;2024-03-02T04:02:37;8.40;99.90
14755;DHT22;7469;50.906;6.952;2024-03-02T04:05:05;8.30;99.90
14755;DHT22;7469;50.906;6.952;2024-03-02T04:07:36;8.30;99.90
14755;DHT22;7469;50.906;6.952;2024-03-02T04:10:09;8.30;99.90
14755;DHT22;7469;50.906;6.952;2024-03-02T04:12:39;8.30;99.90
14755;DHT22;7469;50.906;6.952;2024-03-02T04:15:07;8.20;99.90
14755;DHT22;7469;50.906;6.952;2024-03-02T04:17:35;8.20;99.90
14755;DHT22;7469;50.906;6.952;2024-03-02T04:20:04;8.10;99.90
14755;DHT22;7469;50.906;6.952;2024-03-02T04:22:33;8.10;99.90
14755;DHT22;7469;50.906;6.952;2024-03-02T04:25:02;8.00;99.90
14755;DHT22;7469;50.906;6.952;2024-03-02T04:27:32;8.00;99.90
14755;DHT22;7469;50.906;6.952;2024-03-02T04:30:01;8.00;99.90
14755;DHT22;7469;50.906;6.952;2024-03-02T04:32:29;8.00;99.90
14755;DHT22;7469;50.906;6.952;2024-03-02T04:34:57;8.00;99.90
14755;DHT22;7469;50.906;6.952;2024-03-02T04:37:25;8.00;99.90
14755;DHT22;7469;50.906;6.952;2024-03-02T04:39:53;8.00;99.90
14755;DHT22;7469;50.906;6.952;2024-03-02T04:42:21;8.00;99.90
14755;DHT22;7469;50.906;6.952;2024-03-02T04:44:50;7.90;99.90
14755;DHT22;7469;50.906;6.952;2024-03-02T04:47:18;7.90;99.90
14755;DHT22;7469;50.906;6.952;2024-03-02T04:49:46;7.90;99.90
14755;DHT22;7469;50.906;6.952;2024-03-02T04:52:14;7.80;99.90
14755;DHT22;7469;50.906;6.952;2024-03-02T04:54:42;7.80;99.90
14755;DHT22;7469;50.906;6.952;2024-03-02T04:57:24;7.80;99.90
14755;DHT22;7469;50.906;6.952;2024-03-02T04:59:53;7.80;99.90
14755;DHT22;7469;50.906;6.952;2024-03-02T05:02:21;7.70;99.90
14755;DHT22;7469;50.906;6.952;2024-03-02T05:04:49;7.70;99.90
14755;DHT22;7469;50.906;6.952;2024-03-02T05:07:17;7.70;99.90
14755;DHT22;7469;50.906;6.952;2024-03-02T05:09:45;7.60;99.90
14755;DHT22;7469;50.906;6.952;2024-03-02T05:12:15;7.60;99.90
14755;DHT22;7469;50.906;6.952;2024-03-02T05:15:04;7.50;99.90
14755;DHT22;7469;50.906;6.952;2024-03-02T05:17:32;7.50;99.90
14755;DHT22;7469;50.906;6.952;2024-03-02T05:20:00;7.40;99.90
14755;DHT22;7469;50.906;6.952;2024-03-02T05:22:27;7.40;99.90
14755;DHT22;7469;50.906;6.952;2024-03-02T05:24:56;7.40;99.90
14755;DHT22;7469;50.906;6.952;2024-03-02T05:27:26;7.40;99.90
14755;DHT22;7469;50.906;6.952;2024-03-02T05:29:54;7.40;99.90
14755;DHT22;7469;50.906;6.952;2024-03-02T05:32:23;7.40;99.90
14755;DHT22;7469;50.906;6.952;2024-03-02T05:34:51;7.30;99.90
14755;DHT22;7469;50.906;6.952;2024-03-02T05:37:19;7.30;99.90
14755;DHT22;7469;50.906;6.952;2024-03-02T05:39:47;7.30;99.90
14755;DHT22;7469;50.906;6.952;2024-03-02T05:42:16;7.30;99.90
14755;DHT22;7469;50.906;6.952;2024-03-02T05:44:44;7.20;99.90
14755;DHT22;7469;50.906;6.952;2024-03-02T05:47:12;7.20;99.90
14755;DHT22;7469;50.906;6.952;2024-03-02T05:49:42;7.20;99.90
14755;DHT22;7469;50.906;6.952;2024-03-02T05:52:10;7.10;99.90
14755;DHT22;7469;50.906;6.952;2024-03-02T05:54:39;7.10;99.90
14755;DHT22;7469;50.906;6.952;2024-03-02T05:57:07;7.10;99.90
14755;DHT22;7469;50.906;6.952;2024-03-02T05:59:58;7.10;99.90
14755;DHT22;7469;50.906;6.952;2024-03-02T06:02:26;7.10;99.90
14755;DHT22;7469;50.906;6.952;2024-03-02T06:04:56;7.10;99.90
14755;DHT22;7469;50.906;6.952;2024-03-02T06:07:24;7.10;99.90
14755;DHT22;7469;50.906;6.952;2024-03-02T06:09:52;7.10;99.90
14755;DHT22;7469;50.906;6.952;2024-03-02T06:12:20;7.10;99.90
14755;DHT22;7469;50.906;6.952;2024-03-02T06:14:48;7.10;99.90
14755;DHT22;7469;50.906;6.952;2024-03-02T06:17:16;7.20;99.90
14755;DHT22;7469;50.906;6.952;2024-03-02T06:19:44;7.20;99.90
14755;DHT22;7469;50.906;6.952;2024-03-02T06:22:14;7.20;99.90
14755;DHT22;7469;50.906;6.952;2024-03-02T06:24:42;7.20;99.90
14755;DHT22;7469;50.906;6.952;2024-03-02T06:27:10;7.20;99.90
14755;DHT22;7469;50.906;6.952;2024-03-02T06:29:37;7.20;99.90
14755;DHT22;7469;50.906;6.952;2024-03-02T06:32:06;7.20;99.90
14755;DHT22;7469;50.906;6.952;2024-03-02T06:34:33;7.20;99.90
14755;DHT22;7469;50.906;6.952;2024-03-02T06:37:01;7.20;99.90
14755;DHT22;7469;50.906;6.952;2024-03-02T06:39:31;7.20;99.90
14755;DHT22;7469;50.906;6.952;2024-03-02T06:42:00;7.10;99.90
14755;DHT22;7469;50.906;6.952;2024-03-02T06:44:28;7.10;99.90
14755;DHT22;7469;50.906;6.952;2024-03-02T06:46:57;7.00;99.90
14755;DHT22;7469;50.906;6.952;2024-03-02T06:49:24;7.20;99.90
14755;DHT22;7469;50.906;6.952;2024-03-02T06:51:52;7.20;99.90
14755;DHT22;7469;50.906;6.952;2024-03-02T06:54:20;7.20;99.90
14755;DHT22;7469;50.906;6.952;2024-03-02T06:56:50;7.20;99.90
14755;DHT22;7469;50.906;6.952;2024-03-02T06:59:18;7.30;99.90
14755;DHT22;7469;50.906;6.952;2024-03-02T07:01:46;7.30;99.90
14755;DHT22;7469;50.906;6.952;2024-03-02T07:04:14;7.40;99.90
14755;DHT22;7469;50.906;6.952;2024-03-02T07:06:41;7.50;99.90
14755;DHT22;7469;50.906;6.952;2024-03-02T07:09:09;7.50;99.90
14755;DHT22;7469;50.906;6.952;2024-03-02T07:11:38;7.50;99.90
14755;DHT22;7469;50.906;6.952;2024-03-02T07:14:07;7.50;99.90
14755;DHT22;7469;50.906;6.952;2024-03-02T07:16:37;7.60;99.90
14755;DHT22;7469;50.906;6.952;2024-03-02T07:19:05;7.60;99.90
14755;DHT22;7469;50.906;6.952;2024-03-02T07:21:33;7.60;99.90
14755;DHT22;7469;50.906;6.952;2024-03-02T07:24:01;7.60;99.90
14755;DHT22;7469;50.906;6.952;2024-03-02T07:26:31;7.70;99.90
14755;DHT22;7469;50.906;6.952;2024-03-02T07:29:02;7.70;99.90
14755;DHT22;7469;50.906;6.952;2024-03-02T07:31:31;7.80;99.90
14755;DHT22;7469;50.906;6.952;2024-03-02T07:33:59;7.80;99.90
14755;DHT22;7469;50.906;6.952;2024-03-02T07:36:27;7.90;99.90
14755;DHT22;7469;50.906;6.952;2024-03-02T07:38:55;7.90;99.90
14755;DHT22;7469;50.906;6.952;2024-03-02T07:41:23;8.00;99.90
14755;DHT22;7469;50.906;6.952;2024-03-02T07:43:51;8.00;99.90
14755;DHT22;7469;50.906;6.952;2024-03-02T07:46:19;8.10;99.90
14755;DHT22;7469;50.906;6.952;2024-03-02T07:48:48;8.20;99.90
14755;DHT22;7469;50.906;6.952;2024-03-02T07:51:18;8.20;99.90
14755;DHT22;7469;50.906;6.952;2024-03-02T07:53:46;8.30;99.90
14755;DHT22;7469;50.906;6.952;2024-03-02T07:56:14;8.30;99.90
14755;DHT22;7469;50.906;6.952;2024-03-02T07:58:48;8.30;99.90
14755;DHT22;7469;50.906;6.952;2024-03-02T08:01:16;8.40;99.90
14755;DHT22;7469;50.906;6.952;2024-03-02T08:03:45;8.40;99.90
14755;DHT22;7469;50.906;6.952;2024-03-02T08:06:16;8.50;99.90
14755;DHT22;7469;50.906;6.952;2024-03-02T08:08:44;8.60;99.90
14755;DHT22;7469;50.906;6.952;2024-03-02T08:11:12;8.60;99.90
14755;DHT22;7469;50.906;6.952;2024-03-02T08:13:40;8.70;99.90
14755;DHT22;7469;50.906;6.952;2024-03-02T08:16:07;8.80;99.90
14755;DHT22;7469;50.906;6.952;2024-03-02T08:18:36;9.00;99.90
14755;DHT22;7469;50.906;6.952;2024-03-02T08:21:04;9.20;99.90
14755;DHT22;7469;50.906;6.952;2024-03-02T08:23:34;9.30;99.90
14755;DHT22;7469;50.906;6.952;2024-03-02T08:26:02;9.40;99.90
14755;DHT22;7469;50.906;6.952;2024-03-02T08:28:30;9.60;99.90
14755;DHT22;7469;50.906;6.952;2024-03-02T08:30:59;9.60;99.90
14755;DHT22;7469;50.906;6.952;2024-03-02T08:33:27;9.60;99.90
14755;DHT22;7469;50.906;6.952;2024-03-02T08:35:55;9.70;99.90
14755;DHT22;7469;50.906;6.952;2024-03-02T08:38:23;9.90;99.90
14755;DHT22;7469;50.906;6.952;2024-03-02T08:40:53;10.00;99.90
14755;DHT22;7469;50.906;6.952;2024-03-02T08:43:21;10.10;99.90
14755;DHT22;7469;50.906;6.952;2024-03-02T08:45:49;10.20;99.90
14755;DHT22;7469;50.906;6.952;2024-03-02T08:48:17;10.30;99.90
14755;DHT22;7469;50.906;6.952;2024-03-02T08:50:47;10.30;99.90
14755;DHT22;7469;50.906;6.952;2024-03-02T08:53:15;10.20;99.90
14755;DHT22;7469;50.906;6.952;2024-03-02T08:55:45;10.20;99.90
14755;DHT22;7469;50.906;6.952;2024-03-02T08:58:14;10.30;99.90
14755;DHT22;7469;50.906;6.952;2024-03-02T09:00:42;10.40;99.90
14755;DHT22;7469;50.906;6.952;2024-03-02T09:03:11;10.50;99.90
14755;DHT22;7469;50.906;6.952;2024-03-02T09:05:39;10.60;99.90
14755;DHT22;7469;50.906;6.952;2024-03-02T09:08:06;10.70;99.90
14755;DHT22;7469;50.906;6.952;2024-03-02T09:10:34;10.80;99.90
14755;DHT22;7469;50.906;6.952;2024-03-02T09:13:03;10.90;99.90
14755;DHT22;7469;50.906;6.952;2024-03-02T09:15:32;11.00;99.90
14755;DHT22;7469;50.906;6.952;2024-03-02T09:18:04;11.20;99.90
14755;DHT22;7469;50.906;6.952;2024-03-02T09:20:33;11.20;99.90
14755;DHT22;7469;50.906;6.952;2024-03-02T09:23:01;11.40;99.90
14755;DHT22;7469;50.906;6.952;2024-03-02T09:25:29;11.50;99.90
14755;DHT22;7469;50.906;6.952;2024-03-02T09:27:57;11.70;99.90
14755;DHT22;7469;50.906;6.952;2024-03-02T09:30:25;11.80;99.90
14755;DHT22;7469;50.906;6.952;2024-03-02T09:32:54;11.90;99.90
14755;DHT22;7469;50.906;6.952;2024-03-02T09:35:42;12.00;99.90
14755;DHT22;7469;50.906;6.952;2024-03-02T09:38:10;12.20;99.90
14755;DHT22;7469;50.906;6.952;2024-03-02T09:40:38;12.50;99.90
14755;DHT22;7469;50.906;6.952;2024-03-02T09:43:07;12.80;99.90
14755;DHT22;7469;50.906;6.952;2024-03-02T09:45:36;13.10;99.90
14755;DHT22;7469;50.906;6.952;2024-03-02T09:48:07;13.50;99.90
14755;DHT22;7469;50.906;6.952;2024-03-02T09:50:35;13.70;99.90
14755;DHT22;7469;50.906;6.952;2024-03-02T09:53:03;13.90;99.90
14755;DHT22;7469;50.906;6.952;2024-03-02T09:55:32;14.00;99.90
14755;DHT22;7469;50.906;6.952;2024-03-02T09:58:00;14.00;99.90
14755;DHT22;7469;50.906;6.952;2024-03-02T10:00:28;14.20;99.90
14755;DHT22;7469;50.906;6.952;2024-03-02T10:02:56;14.60;99.90
14755;DHT22;7469;50.906;6.952;2024-03-02T10:05:27;14.80;99.90
14755;DHT22;7469;50.906;6.952;2024-03-02T10:07:59;14.80;99.90
14755;DHT22;7469;50.906;6.952;2024-03-02T10:10:36;14.90;99.90
14755;DHT22;7469;50.906;6.952;2024-03-02T10:13:07;15.10;99.90
14755;DHT22;7469;50.906;6.952;2024-03-02T10:15:37;15.30;99.90
14755;DHT22;7469;50.906;6.952;2024-03-02T10:18:05;15.40;99.90
14755;DHT22;7469;50.906;6.952;2024-03-02T10:20:37;15.70;99.90
14755;DHT22;7469;50.906;6.952;2024-03-02T10:23:12;15.90;99.90
14755;DHT22;7469;50.906;6.952;2024-03-02T10:25:41;16.30;99.90
14755;DHT22;7469;50.906;6.952;2024-03-02T10:28:23;16.70;99.10
14755;DHT22;7469;50.906;6.952;2024-03-02T10:30:51;17.10;97.80
14755;DHT22;7469;50.906;6.952;2024-03-02T10:33:20;17.50;95.20
14755;DHT22;7469;50.906;6.952;2024-03-02T10:35:50;17.50;93.60
14755;DHT22;7469;50.906;6.952;2024-03-02T10:38:18;17.30;92.60
14755;DHT22;7469;50.906;6.952;2024-03-02T10:40:47;17.40;92.40
14755;DHT22;7469;50.906;6.952;2024-03-02T10:43:15;17.20;91.10
14755;DHT22;7469;50.906;6.952;2024-03-02T10:45:46;17.00;91.20
14755;DHT22;7469;50.906;6.952;2024-03-02T10:48:18;17.10;91.20
14755;DHT22;7469;50.906;6.952;2024-03-02T10:50:46;17.10;90.50
14755;DHT22;7469;50.906;6.952;2024-03-02T10:53:15;17.00;89.90
14755;DHT22;7469;50.906;6.952;2024-03-02T10:55:43;17.20;90.00
14755;DHT22;7469;50.906;6.952;2024-03-02T10:58:12;17.40;88.90
14755;DHT22;7469;50.906;6.952;2024-03-02T11:00:44;17.50;88.00
14755;DHT22;7469;50.906;6.952;2024-03-02T11:03:13;17.30;86.50
14755;DHT22;7469;50.906;6.952;2024-03-02T11:05:44;17.20;86.90
14755;DHT22;7469;50.906;6.952;2024-03-02T11:08:16;16.90;87.70
14755;DHT22;7469;50.906;6.952;2024-03-02T11:10:49;16.60;88.10
14755;DHT22;7469;50.906;6.952;2024-03-02T11:13:22;16.20;89.40
14755;DHT22;7469;50.906;6.952;2024-03-02T11:15:52;16.10;90.10
14755;DHT22;7469;50.906;6.952;2024-03-02T11:18:21;15.90;90.40
14755;DHT22;7469;50.906;6.952;2024-03-02T11:20:50;16.00;90.50
14755;DHT22;7469;50.906;6.952;2024-03-02T11:23:31;15.90;90.80
14755;DHT22;7469;50.906;6.952;2024-03-02T11:26:18;15.90;90.70
14755;DHT22;7469;50.906;6.952;2024-03-02T11:28:46;15.90;91.20
14755;DHT22;7469;50.906;6.952;2024-03-02T11:31:14;16.00;90.80
14755;DHT22;7469;50.906;6.952;2024-03-02T11:33:42;15.90;90.90
14755;DHT22;7469;50.906;6.952;2024-03-02T11:36:10;16.00;91.20
14755;DHT22;7469;50.906;6.952;2024-03-02T11:38:43;16.10;90.80
14755;DHT22;7469;50.906;6.952;2024-03-02T11:41:12;16.20;91.00
14755;DHT22;7469;50.906;6.952;2024-03-02T11:43:42;16.40;90.70
14755;DHT22;7469;50.906;6.952;2024-03-02T11:46:11;16.30;90.10
14755;DHT22;7469;50.906;6.952;2024-03-02T11:48:40;16.10;90.50
14755;DHT22;7469;50.906;6.952;2024-03-02T11:51:08;16.10;90.60
14755;DHT22;7469;50.906;6.952;2024-03-02T11:53:40;15.80;91.10
14755;DHT22;7469;50.906;6.952;2024-03-02T11:56:09;15.80;91.50
14755;DHT22;7469;50.906;6.952;2024-03-02T11:58:39;15.70;91.90
14755;DHT22;7469;50.906;6.952;2024-03-02T12:01:08;15.60;92.10
14755;DHT22;7469;50.906;6.952;2024-03-02T12:03:36;15.50;92.50
14755;DHT22;7469;50.906;6.952;2024-03-02T12:06:06;15.40;92.70
14755;DHT22;7469;50.906;6.952;2024-03-02T12:08:34;15.40;93.20
14755;DHT22;7469;50.906;6.952;2024-03-02T12:11:05;15.30;93.20
14755;DHT22;7469;50.906;6.952;2024-03-02T12:13:34;15.00;93.70
14755;DHT22;7469;50.906;6.952;2024-03-02T12:16:02;14.80;94.40
14755;DHT22;7469;50.906;6.952;2024-03-02T12:18:30;14.70;94.70
14755;DHT22;7469;50.906;6.952;2024-03-02T12:20:59;14.60;94.60
14755;DHT22;7469;50.906;6.952;2024-03-02T12:23:29;14.50;95.10
14755;DHT22;7469;50.906;6.952;2024-03-02T12:25:57;14.60;95.50
14755;DHT22;7469;50.906;6.952;2024-03-02T12:28:26;14.50;95.40
14755;DHT22;7469;50.906;6.952;2024-03-02T12:30:54;14.40;95.90
14755;DHT22;7469;50.906;6.952;2024-03-02T12:33:22;14.50;96.00
14755;DHT22;7469;50.906;6.952;2024-03-02T12:35:51;14.60;96.00
14755;DHT22;7469;50.906;6.952;2024-03-02T12:38:19;14.50;96.40
14755;DHT22;7469;50.906;6.952;2024-03-02T12:40:48;14.50;96.70
14755;DHT22;7469;50.906;6.952;2024-03-02T12:43:16;14.60;96.90
14755;DHT22;7469;50.906;6.952;2024-03-02T12:45:45;14.60;96.60
14755;DHT22;7469;50.906;6.952;2024-03-02T12:48:14;14.50;96.60
14755;DHT22;7469;50.906;6.952;2024-03-02T12:50:42;14.50;97.30
14755;DHT22;7469;50.906;6.952;2024-03-02T12:53:14;14.50;97.00
14755;DHT22;7469;50.906;6.952;2024-03-02T12:55:42;14.60;96.90
14755;DHT22;7469;50.906;6.952;2024-03-02T12:58:16;14.50;96.60
14755;DHT22;7469;50.906;6.952;2024-03-02T13:00:46;14.50;96.70
14755;DHT22;7469;50.906;6.952;2024-03-02T13:03:14;14.50;96.80
14755;DHT22;7469;50.906;6.952;2024-03-02T13:05:48;14.60;97.00
14755;DHT22;7469;50.906;6.952;2024-03-02T13:08:16;14.70;97.20
14755;DHT22;7469;50.906;6.952;2024-03-02T13:10:45;14.80;97.20
14755;DHT22;7469;50.906;6.952;2024-03-02T13:13:13;14.80;97.30
14755;DHT22;7469;50.906;6.952;2024-03-02T13:15:41;14.60;97.00
14755;DHT22;7469;50.906;6.952;2024-03-02T13:18:11;14.50;96.70
14755;DHT22;7469;50.906;6.952;2024-03-02T13:20:40;14.30;96.90
14755;DHT22;7469;50.906;6.952;2024-03-02T13:23:08;14.20;97.30
14755;DHT22;7469;50.906;6.952;2024-03-02T13:25:37;14.10;97.70
14755;DHT22;7469;50.906;6.952;2024-03-02T13:28:05;14.00;98.20
14755;DHT22;7469;50.906;6.952;2024-03-02T13:30:33;14.00;98.30
14755;DHT22;7469;50.906;6.952;2024-03-02T13:33:02;14.10;98.30
14755;DHT22;7469;50.906;6.952;2024-03-02T13:35:31;14.30;98.10
14755;DHT22;7469;50.906;6.952;2024-03-02T13:37:59;14.40;98.00
14755;DHT22;7469;50.906;6.952;2024-03-02T13:40:27;14.50;97.60
14755;DHT22;7469;50.906;6.952;2024-03-02T13:42:56;14.50;97.40
14755;DHT22;7469;50.906;6.952;2024-03-02T13:45:24;14.50;97.40
14755;DHT22;7469;50.906;6.952;2024-03-02T13:47:52;14.60;97.50
14755;DHT22;7469;50.906;6.952;2024-03-02T13:50:20;14.80;96.90
14755;DHT22;7469;50.906;6.952;2024-03-02T13:52:49;15.00;96.40
14755;DHT22;7469;50.906;6.952;2024-03-02T13:55:17;15.20;95.90
14755;DHT22;7469;50.906;6.952;2024-03-02T13:57:46;15.10;95.90
14755;DHT22;7469;50.906;6.952;2024-03-02T14:00:15;15.00;96.00
14755;DHT22;7469;50.906;6.952;2024-03-02T14:02:45;14.90;96.00
14755;DHT22;7469;50.906;6.952;2024-03-02T14:05:13;14.70;96.30
14755;DHT22;7469;50.906;6.952;2024-03-02T14:07:42;14.60;96.50
14755;DHT22;7469;50.906;6.952;2024-03-02T14:10:11;14.50;96.40
14755;DHT22;7469;50.906;6.952;2024-03-02T14:12:41;14.50;96.60
14755;DHT22;7469;50.906;6.952;2024-03-02T14:15:09;14.40;96.80
14755;DHT22;7469;50.906;6.952;2024-03-02T14:17:37;14.40;97.00
14755;DHT22;7469;50.906;6.952;2024-03-02T14:20:06;14.40;96.90
14755;DHT22;7469;50.906;6.952;2024-03-02T14:22:36;14.40;97.00
14755;DHT22;7469;50.906;6.952;2024-03-02T14:25:05;14.40;97.20
14755;DHT22;7469;50.906;6.952;2024-03-02T14:27:35;14.40;97.50
14755;DHT22;7469;50.906;6.952;2024-03-02T14:30:23;14.40;97.60
14755;DHT22;7469;50.906;6.952;2024-03-02T14:32:51;14.40;98.10
14755;DHT22;7469;50.906;6.952;2024-03-02T14:35:19;14.30;97.70
14755;DHT22;7469;50.906;6.952;2024-03-02T14:37:49;14.20;97.60
14755;DHT22;7469;50.906;6.952;2024-03-02T14:40:17;14.10;97.90
14755;DHT22;7469;50.906;6.952;2024-03-02T14:42:46;14.10;98.10
14755;DHT22;7469;50.906;6.952;2024-03-02T14:45:15;14.10;98.00
14755;DHT22;7469;50.906;6.952;2024-03-02T14:47:43;14.00;98.30
14755;DHT22;7469;50.906;6.952;2024-03-02T14:50:11;14.00;98.40
14755;DHT22;7469;50.906;6.952;2024-03-02T14:52:39;13.90;98.60
14755;DHT22;7469;50.906;6.952;2024-03-02T14:55:11;13.90;98.70
14755;DHT22;7469;50.906;6.952;2024-03-02T14:57:39;13.90;98.80
14755;DHT22;7469;50.906;6.952;2024-03-02T15:00:10;13.90;98.80
14755;DHT22;7469;50.906;6.952;2024-03-02T15:02:38;13.90;98.80
14755;DHT22;7469;50.906;6.952;2024-03-02T15:05:07;13.90;98.70
14755;DHT22;7469;50.906;6.952;2024-03-02T15:07:35;13.90;98.70
14755;DHT22;7469;50.906;6.952;2024-03-02T15:10:03;13.90;98.70
14755;DHT22;7469;50.906;6.952;2024-03-02T15:12:32;13.80;98.50
14755;DHT22;7469;50.906;6.952;2024-03-02T15:15:00;13.90;98.10
14755;DHT22;7469;50.906;6.952;2024-03-02T15:17:29;13.90;97.80
14755;DHT22;7469;50.906;6.952;2024-03-02T15:19:58;13.90;97.80
14755;DHT22;7469;50.906;6.952;2024-03-02T15:22:26;13.90;97.80
14755;DHT22;7469;50.906;6.952;2024-03-02T15:24:54;13.90;97.80
14755;DHT22;7469;50.906;6.952;2024-03-02T15:27:22;13.90;97.90
14755;DHT22;7469;50.906;6.952;2024-03-02T15:29:50;13.90;97.90
14755;DHT22;7469;50.906;6.952;2024-03-02T15:32:18;13.90;97.80
14755;DHT22;7469;50.906;6.952;2024-03-02T15:34:48;13.90;97.70
14755;DHT22;7469;50.906;6.952;2024-03-02T15:37:16;13.80;97.80
14755;DHT22;7469;50.906;6.952;2024-03-02T15:39:44;13.80;98.20
14755;DHT22;7469;50.906;6.952;2024-03-02T15:42:12;13.80;97.90
14755;DHT22;7469;50.906;6.952;2024-03-02T15:44:40;13.80;98.00
14755;DHT22;7469;50.906;6.952;2024-03-02T15:47:11;13.80;97.80
14755;DHT22;7469;50.906;6.952;2024-03-02T15:49:39;13.80;97.70
14755;DHT22;7469;50.906;6.952;2024-03-02T15:52:09;13.80;97.60
14755;DHT22;7469;50.906;6.952;2024-03-02T15:54:37;13.80;97.50
14755;DHT22;7469;50.906;6.952;2024-03-02T15:57:05;13.80;97.50
14755;DHT22;7469;50.906;6.952;2024-03-02T15:59:33;13.80;97.50
14755;DHT22;7469;50.906;6.952;2024-03-02T16:02:01;13.80;97.60
14755;DHT22;7469;50.906;6.952;2024-03-02T16:04:30;13.90;97.60
14755;DHT22;7469;50.906;6.952;2024-03-02T16:06:58;13.90;97.70
14755;DHT22;7469;50.906;6.952;2024-03-02T16:09:28;13.80;97.80